Time;durP1;ratioP1;P1;durP2;ratioP2;P2;SDS_P1;SDS_P2;PMS_P1;PMS_P2;Temp;Humidity;BMP_temperature;BMP_pressure;BME280_temperature;BME280_humidity;BME280_pressure;Samples;Min_cycle;Max_cycle;Signal;HPM_P1;HPM_P2
2022/05/09 00:01:56;;;;;;;9.30;5.97;;;18.10;57.30;;;;;;5092736;28;20040;-73
2022/05/09 00:04:22;;;;;;;7.32;5.82;;;18.10;57.40;;;;;;5092934;28;20016;-74
2022/05/09 00:06:49;;;;;;;6.32;5.47;;;18.10;57.30;;;;;;5092898;28;20048;-73
2022/05/09 00:09:16;;;;;;;8.18;6.25;;;18.10;57.40;;;;;;5090857;28;20358;-74
2022/05/09 00:11:42;;;;;;;10.50;5.90;;;18.10;57.40;;;;;;5092804;28;20023;-74
2022/05/09 00:14:08;;;;;;;7.18;5.45;;;18.00;57.30;;;;;;5092780;28;20103;-74
2022/05/09 00:16:34;;;;;;;6.70;5.68;;;18.00;57.40;;;;;;5091364;28;20093;-74
2022/05/09 00:19:05;;;;;;;8.32;5.60;;;18.00;57.40;;;;;;5092719;28;20123;-74
2022/05/09 00:21:33;;;;;;;7.07;5.97;;;18.00;57.60;;;;;;5091458;28;20435;-74
2022/05/09 00:24:00;;;;;;;8.77;5.85;;;17.90;57.60;;;;;;5078064;28;20021;-74
2022/05/09 00:26:31;;;;;;;6.75;6.05;;;17.90;57.60;;;;;;5071138;28;20490;-73
2022/05/09 00:29:03;;;;;;;8.57;5.97;;;17.90;57.50;;;;;;5072396;28;20035;-74
2022/05/09 00:31:29;;;;;;;6.97;5.60;;;17.80;57.70;;;;;;5070977;28;20024;-73
2022/05/09 00:33:55;;;;;;;7.45;5.47;;;17.80;57.50;;;;;;5072169;28;20473;-73
2022/05/09 00:36:22;;;;;;;6.15;5.32;;;17.80;57.40;;;;;;5070838;28;20123;-73
2022/05/09 00:38:50;;;;;;;8.13;5.65;;;17.70;57.40;;;;;;5070902;28;20021;-73
2022/05/09 00:41:31;;;;;;;6.30;5.53;;;17.60;57.60;;;;;;5070780;28;20021;-74
2022/05/09 00:44:13;;;;;;;6.22;5.53;;;17.60;57.60;;;;;;5070731;28;20031;-73
2022/05/09 00:46:51;;;;;;;7.93;5.13;;;17.50;57.80;;;;;;5070825;28;20024;-74
2022/05/09 00:49:46;;;;;;;6.05;5.20;;;17.40;57.70;;;;;;5072159;28;20363;-74
2022/05/09 00:52:37;;;;;;;5.65;5.05;;;17.40;57.80;;;;;;5072160;28;20047;-74
2022/05/09 00:55:40;;;;;;;7.40;5.18;;;17.30;57.70;;;;;;5084438;28;20102;-74
2022/05/09 00:58:08;;;;;;;5.57;4.85;;;17.20;57.90;;;;;;5096450;28;20477;-73
2022/05/09 01:00:34;;;;;;;5.90;4.97;;;17.10;57.80;;;;;;5097842;28;20065;-73
2022/05/09 01:03:06;;;;;;;7.65;5.20;;;17.10;57.80;;;;;;5115952;28;20102;-73
2022/05/09 01:05:32;;;;;;;5.97;5.18;;;17.00;58.10;;;;;;5115890;28;20059;-73
2022/05/09 01:07:59;;;;;;;8.15;4.90;;;17.00;58.20;;;;;;5105534;28;20067;-74
2022/05/09 01:10:31;;;;;;;9.88;5.63;;;16.90;58.50;;;;;;5095340;28;20055;-73
2022/05/09 01:13:03;;;;;;;5.95;5.35;;;16.90;58.80;;;;;;5095274;28;20020;-74
2022/05/09 01:15:30;;;;;;;7.00;5.85;;;16.90;58.90;;;;;;5091301;28;20385;-74
2022/05/09 01:17:55;;;;;;;6.28;4.82;;;16.80;59.10;;;;;;5115553;28;20024;-74
2022/05/09 01:20:21;;;;;;;7.18;5.03;;;16.80;59.00;;;;;;5115531;28;20022;-74
2022/05/09 01:22:47;;;;;;;5.88;4.82;;;16.80;59.10;;;;;;5113755;28;20123;-74
2022/05/09 01:25:16;;;;;;;6.20;4.68;;;16.80;59.10;;;;;;5115364;28;20031;-73
2022/05/09 01:27:45;;;;;;;9.00;5.28;;;16.80;59.30;;;;;;5097075;28;20024;-74
2022/05/09 01:30:16;;;;;;;5.47;4.53;;;16.80;59.40;;;;;;5115277;28;20011;-73
2022/05/09 01:32:48;;;;;;;6.28;5.10;;;16.80;59.60;;;;;;5115439;28;20028;-73
2022/05/09 01:35:28;;;;;;;6.35;5.30;;;16.80;59.60;;;;;;5096989;28;20028;-74
2022/05/09 01:38:11;;;;;;;7.35;5.47;;;16.80;59.70;;;;;;5080802;28;20035;-73
2022/05/09 01:40:37;;;;;;;6.20;4.53;;;16.80;59.70;;;;;;5076639;28;20027;-74
2022/05/09 01:43:02;;;;;;;7.22;5.10;;;16.80;59.50;;;;;;5076593;28;20074;-74
2022/05/09 01:45:28;;;;;;;14.05;5.90;;;16.80;59.60;;;;;;5094957;28;20382;-74
2022/05/09 01:50:38;;;;;;;7.30;5.90;;;16.90;59.70;;;;;;5114804;28;20041;-74
2022/05/09 01:53:04;;;;;;;6.50;4.97;;;16.90;59.50;;;;;;5114932;28;20106;-74
2022/05/09 01:55:30;;;;;;;6.78;5.28;;;16.90;59.70;;;;;;5108098;28;20056;-73
2022/05/09 01:57:56;;;;;;;9.18;5.60;;;16.90;59.70;;;;;;5094308;28;20431;-74
2022/05/09 02:00:22;;;;;;;6.80;5.60;;;16.90;59.70;;;;;;5094608;28;20099;-74
2022/05/09 02:02:48;;;;;;;9.55;6.07;;;17.00;59.80;;;;;;5094522;28;20111;-74
2022/05/09 02:05:14;;;;;;;8.00;5.78;;;17.00;59.80;;;;;;5094391;28;20035;-73
2022/05/09 02:07:40;;;;;;;6.68;5.63;;;17.00;59.90;;;;;;5075957;28;20066;-74
2022/05/09 02:10:06;;;;;;;6.68;5.95;;;17.00;59.90;;;;;;5094587;28;20024;-74
2022/05/09 02:12:32;;;;;;;9.45;6.13;;;17.00;60.00;;;;;;5094206;28;20020;-73
2022/05/09 02:14:57;;;;;;;5.93;5.13;;;17.00;59.80;;;;;;5107078;28;20032;-74
2022/05/09 02:17:23;;;;;;;8.07;6.00;;;17.00;59.80;;;;;;5109938;28;20024;-73
2022/05/09 02:19:49;;;;;;;11.18;5.55;;;17.00;60.00;;;;;;5114502;28;20430;-74
2022/05/09 02:22:14;;;;;;;7.00;5.68;;;17.00;60.00;;;;;;5114383;28;20027;-73
2022/05/09 02:24:41;;;;;;;9.88;5.15;;;17.00;60.00;;;;;;5114488;28;20027;-74
2022/05/09 02:27:09;;;;;;;6.45;5.15;;;17.00;59.90;;;;;;5096904;28;20024;-73
2022/05/09 02:29:37;;;;;;;14.95;5.43;;;17.00;59.90;;;;;;5109930;28;20024;-74
2022/05/09 02:32:05;;;;;;;7.88;6.15;;;17.00;60.00;;;;;;5114208;28;20062;-73
2022/05/09 02:34:31;;;;;;;8.77;5.68;;;17.00;60.00;;;;;;5114094;28;20434;-73
2022/05/09 02:36:57;;;;;;;11.27;6.35;;;17.00;60.10;;;;;;5114098;28;20016;-73
2022/05/09 02:39:23;;;;;;;10.25;6.70;;;17.00;60.10;;;;;;5094872;28;20027;-73
2022/05/09 02:41:49;;;;;;;7.93;5.50;;;17.10;60.40;;;;;;5093576;28;20473;-73
2022/05/09 02:44:15;;;;;;;6.30;5.55;;;17.10;60.30;;;;;;5093485;28;20024;-74
2022/05/09 02:46:44;;;;;;;7.88;5.53;;;17.10;60.10;;;;;;5093995;28;20032;-74
2022/05/09 02:49:11;;;;;;;10.10;5.47;;;17.10;60.20;;;;;;5113832;28;20053;-73
2022/05/09 02:51:38;;;;;;;9.68;5.80;;;17.10;60.00;;;;;;5095369;28;20024;-73
2022/05/09 02:54:04;;;;;;;7.60;5.75;;;17.10;60.80;;;;;;5093495;28;20063;-74
2022/05/09 02:56:29;;;;;;;6.82;6.10;;;17.10;60.10;;;;;;5108713;28;20039;-73
2022/05/09 02:58:56;;;;;;;8.77;5.75;;;17.10;60.00;;;;;;5113471;28;20043;-74
2022/05/09 03:01:21;;;;;;;11.25;6.53;;;17.10;60.10;;;;;;5113520;28;20052;-73
2022/05/09 03:06:31;;;;;;;8.35;5.90;;;17.10;60.10;;;;;;5113617;28;20494;-73
2022/05/09 03:08:57;;;;;;;8.05;6.20;;;17.10;60.10;;;;;;5095228;28;20035;-73
2022/05/09 03:11:23;;;;;;;6.82;6.13;;;17.10;60.10;;;;;;5095093;28;20392;-73
2022/05/09 03:13:49;;;;;;;9.35;6.53;;;17.10;60.40;;;;;;5113408;28;20059;-74
2022/05/09 03:16:15;;;;;;;7.72;6.10;;;17.10;60.30;;;;;;5113261;28;20019;-74
2022/05/09 03:18:40;;;;;;;6.95;5.63;;;17.10;60.30;;;;;;5112683;28;20042;-73
2022/05/09 03:21:06;;;;;;;7.03;5.65;;;17.10;61.00;;;;;;5113296;28;20015;-73
2022/05/09 03:23:32;;;;;;;7.35;5.13;;;17.20;60.30;;;;;;5106640;28;20020;-73
2022/05/09 03:25:58;;;;;;;8.90;5.68;;;17.20;60.40;;;;;;5074750;28;20020;-73
2022/05/09 03:28:24;;;;;;;10.05;6.53;;;17.20;60.40;;;;;;5092124;28;20366;-74
2022/05/09 03:30:52;;;;;;;11.48;5.97;;;17.20;60.40;;;;;;5094591;28;20102;-74
2022/05/09 03:33:20;;;;;;;7.65;5.88;;;17.30;60.40;;;;;;5112870;28;20020;-73
2022/05/09 03:35:46;;;;;;;6.00;5.20;;;17.30;60.50;;;;;;5094504;28;20073;-73
2022/05/09 03:38:13;;;;;;;7.13;5.95;;;17.30;60.40;;;;;;5112770;28;20024;-74
2022/05/09 03:40:39;;;;;;;8.05;6.18;;;17.30;60.30;;;;;;5094483;28;20030;-73
2022/05/09 03:43:06;;;;;;;9.63;6.80;;;17.30;60.30;;;;;;5112893;28;20099;-74
2022/05/09 03:45:32;;;;;;;7.60;5.90;;;17.30;60.20;;;;;;5112282;28;20090;-73
2022/05/09 03:47:59;;;;;;;10.35;5.97;;;17.40;60.40;;;;;;5112144;28;20035;-73
2022/05/09 03:50:25;;;;;;;8.80;7.20;;;17.30;60.40;;;;;;5094488;28;20434;-74
2022/05/09 03:52:51;;;;;;;7.97;5.25;;;17.40;61.40;;;;;;5112712;28;20465;-73
2022/05/09 03:55:16;;;;;;;10.13;6.22;;;17.40;60.60;;;;;;5112677;28;20054;-74
2022/05/09 03:57:51;;;;;;;10.77;6.15;;;17.50;60.80;;;;;;5094424;28;20393;-73
2022/05/09 04:00:20;;;;;;;9.55;6.10;;;17.50;60.80;;;;;;5112676;28;20106;-74
2022/05/09 04:02:46;;;;;;;8.93;6.43;;;17.40;61.60;;;;;;5112650;28;20031;-73
2022/05/09 04:05:16;;;;;;;8.32;5.82;;;17.50;60.80;;;;;;5112490;28;20020;-74
2022/05/09 04:07:44;;;;;;;11.77;6.70;;;17.50;60.60;;;;;;5104626;28;20045;-73
2022/05/09 04:10:10;;;;;;;11.05;5.72;;;17.50;60.80;;;;;;5074073;28;20024;-74
2022/05/09 04:12:36;;;;;;;8.07;6.57;;;17.50;60.70;;;;;;5092017;28;20068;-74
2022/05/09 04:17:47;;;;;;;10.73;6.45;;;17.60;60.80;;;;;;5092288;28;20031;-74
2022/05/09 04:20:13;;;;;;;9.35;6.47;;;17.70;60.90;;;;;;5073850;28;20474;-74
2022/05/09 04:22:40;;;;;;;15.05;6.95;;;17.70;60.80;;;;;;5104427;28;20020;-74
2022/05/09 04:25:09;;;;;;;11.35;6.55;;;17.70;61.00;;;;;;5094098;28;20169;-73
2022/05/09 04:27:36;;;;;;;9.73;5.95;;;17.80;61.00;;;;;;5111403;28;20079;-73
2022/05/09 04:30:03;;;;;;;6.88;5.82;;;17.80;60.70;;;;;;5112582;28;20077;-74
2022/05/09 04:32:28;;;;;;;8.20;5.90;;;17.80;60.60;;;;;;5116547;28;20020;-74
2022/05/09 04:34:54;;;;;;;7.93;6.10;;;17.90;61.40;;;;;;5116517;28;20026;-74
2022/05/09 04:37:20;;;;;;;9.68;6.10;;;17.90;60.60;;;;;;5098240;28;20024;-74
2022/05/09 04:39:47;;;;;;;7.90;6.88;;;17.90;60.70;;;;;;5116399;28;20026;-74
2022/05/09 04:42:14;;;;;;;8.48;6.70;;;17.90;60.70;;;;;;5116459;28;20068;-73
2022/05/09 04:44:40;;;;;;;10.43;7.38;;;17.90;60.70;;;;;;5116391;28;20044;-73
2022/05/09 04:47:07;;;;;;;10.90;6.32;;;17.90;60.70;;;;;;5116420;28;20022;-73
2022/05/09 04:49:33;;;;;;;8.32;6.60;;;17.90;60.70;;;;;;5116296;28;20019;-73
2022/05/09 04:51:58;;;;;;;20.15;9.60;;;18.00;60.80;;;;;;5104256;28;20027;-73
2022/05/09 04:54:24;;;;;;;10.43;7.80;;;18.00;60.90;;;;;;5077664;28;20062;-73
2022/05/09 04:56:50;;;;;;;9.02;7.47;;;18.00;60.90;;;;;;5080480;28;20051;-74
2022/05/09 04:59:16;;;;;;;9.18;7.95;;;18.10;60.90;;;;;;5095410;28;20531;-73
2022/05/09 05:01:41;;;;;;;11.02;8.20;;;18.10;60.90;;;;;;5095567;28;20052;-73
2022/05/09 05:04:10;;;;;;;13.82;9.18;;;18.20;60.90;;;;;;5095601;28;20186;-74
2022/05/09 05:06:36;;;;;;;17.92;10.85;;;18.20;60.80;;;;;;5095467;28;20024;-74
2022/05/09 05:09:02;;;;;;;12.88;9.57;;;18.30;60.60;;;;;;5077388;28;20039;-74
2022/05/09 05:11:29;;;;;;;12.35;8.05;;;18.30;60.50;;;;;;5095741;28;20043;-73
2022/05/09 05:13:56;;;;;;;10.57;7.97;;;18.40;60.40;;;;;;5095669;28;20036;-74
2022/05/09 05:16:59;;;;;;;11.23;7.88;;;18.40;60.20;;;;;;5095252;28;20107;-74
2022/05/09 05:19:10;;;;;;;13.70;8.80;;;18.50;60.10;;;;;;5095038;28;20024;-74
2022/05/09 05:21:36;;;;;;;12.77;9.20;;;18.60;60.00;;;;;;5077264;28;20023;-74
2022/05/09 05:24:01;;;;;;;11.75;9.48;;;18.60;59.90;;;;;;5081977;28;20023;-74
2022/05/09 05:26:27;;;;;;;18.55;9.35;;;18.70;59.80;;;;;;5115575;28;20436;-74
2022/05/09 05:28:53;;;;;;;19.73;13.48;;;18.70;59.80;;;;;;5115488;28;20028;-73
2022/05/09 05:31:19;;;;;;;23.58;14.73;;;18.80;59.80;;;;;;5097251;28;20381;-74
2022/05/09 05:33:45;;;;;;;26.08;13.85;;;18.80;59.60;;;;;;5115478;28;20028;-74
2022/05/09 05:36:11;;;;;;;27.17;15.00;;;18.90;59.50;;;;;;5115390;28;20415;-73
2022/05/09 05:38:39;;;;;;;25.73;13.40;;;19.00;59.40;;;;;;5108896;28;20012;-74
2022/05/09 05:41:05;;;;;;;21.92;14.80;;;19.10;59.30;;;;;;5115055;28;20012;-74
2022/05/09 05:43:31;;;;;;;23.50;14.43;;;19.20;59.70;;;;;;5114562;28;20035;-74
2022/05/09 05:45:57;;;;;;;26.35;14.60;;;19.30;58.90;;;;;;5114704;28;20023;-73
2022/05/09 05:48:24;;;;;;;20.80;13.50;;;19.40;58.80;;;;;;5076579;28;20474;-73
2022/05/09 05:50:52;;;;;;;24.05;13.93;;;19.50;58.60;;;;;;5094842;28;20028;-74
2022/05/09 05:53:18;;;;;;;22.63;14.02;;;19.60;58.40;;;;;;5098988;28;20044;-74
2022/05/09 05:55:44;;;;;;;21.23;13.50;;;19.70;58.20;;;;;;5114986;28;20088;-73
2022/05/09 05:58:10;;;;;;;20.33;13.30;;;19.80;58.00;;;;;;5114811;28;20071;-74
2022/05/09 06:00:36;;;;;;;26.27;14.57;;;19.80;57.70;;;;;;5115101;28;20028;-73
2022/05/09 06:03:02;;;;;;;25.58;14.40;;;19.90;57.60;;;;;;5115128;28;20016;-74
2022/05/09 06:05:28;;;;;;;32.08;16.25;;;20.00;57.60;;;;;;5115046;28;20047;-73
2022/05/09 06:07:55;;;;;;;29.38;15.32;;;20.10;57.20;;;;;;5114113;28;20047;-74
2022/05/09 06:10:22;;;;;;;29.58;14.65;;;20.10;56.90;;;;;;5113857;28;20026;-74
2022/05/09 06:12:48;;;;;;;30.38;14.93;;;20.20;56.90;;;;;;5114914;28;20026;-74
2022/05/09 06:15:25;;;;;;;27.17;14.68;;;20.30;56.70;;;;;;5096322;28;20028;-74
2022/05/09 06:17:51;;;;;;;27.90;13.82;;;20.30;56.60;;;;;;5096398;28;20389;-73
2022/05/09 06:20:18;;;;;;;27.48;14.50;;;20.30;56.50;;;;;;5114747;28;20103;-74
2022/05/09 06:22:43;;;;;;;27.02;14.20;;;20.40;56.50;;;;;;5114571;28;20069;-73
2022/05/09 06:25:12;;;;;;;27.98;15.32;;;20.40;56.40;;;;;;5114886;28;20019;-74
2022/05/09 06:27:39;;;;;;;33.20;15.50;;;20.50;56.10;;;;;;5096499;28;20102;-73
2022/05/09 06:30:07;;;;;;;25.40;14.38;;;20.50;56.00;;;;;;5096437;28;20099;-74
2022/05/09 06:32:33;;;;;;;28.30;13.07;;;20.50;55.70;;;;;;5114504;28;20028;-73
2022/05/09 06:35:00;;;;;;;32.33;15.02;;;20.60;55.70;;;;;;5096058;28;20122;-74
2022/05/09 06:37:29;;;;;;;34.33;15.63;;;20.70;55.40;;;;;;5114435;28;20103;-74
2022/05/09 06:39:54;;;;;;;27.70;13.30;;;20.70;55.10;;;;;;5094070;28;20043;-74
2022/05/09 06:42:21;;;;;;;31.55;13.75;;;20.80;55.30;;;;;;5093939;28;20056;-74
2022/05/09 06:44:46;;;;;;;21.58;12.68;;;20.90;55.50;;;;;;5077684;28;20512;-74
2022/05/09 06:47:12;;;;;;;21.40;12.23;;;21.00;54.80;;;;;;5114195;28;20059;-74
2022/05/09 06:49:38;;;;;;;19.20;11.43;;;21.20;54.40;;;;;;5114120;28;20102;-73
2022/05/09 06:52:04;;;;;;;20.95;11.65;;;21.30;54.00;;;;;;5114057;28;20546;-74
2022/05/09 06:54:30;;;;;;;25.00;12.10;;;21.40;53.50;;;;;;5110720;28;20024;-74
2022/05/09 06:56:56;;;;;;;18.17;11.27;;;21.50;53.30;;;;;;5095632;28;20039;-74
2022/05/09 06:59:21;;;;;;;17.73;9.95;;;21.70;53.50;;;;;;5092095;28;20051;-73
2022/05/09 07:01:50;;;;;;;15.90;10.48;;;21.80;52.90;;;;;;5098353;28;20028;-74
2022/05/09 07:04:16;;;;;;;14.50;9.40;;;21.90;51.70;;;;;;5101595;28;20016;-73
2022/05/09 07:06:42;;;;;;;16.98;9.15;;;22.10;51.90;;;;;;5100636;28;20020;-74
2022/05/09 07:09:10;;;;;;;13.23;8.63;;;22.20;51.30;;;;;;5093445;28;20047;-74
2022/05/09 07:11:36;;;;;;;13.52;8.10;;;22.30;50.70;;;;;;5112349;28;20027;-74
2022/05/09 07:14:03;;;;;;;9.20;7.65;;;22.40;50.40;;;;;;5095538;28;20110;-74
2022/05/09 07:16:29;;;;;;;10.60;8.35;;;22.50;50.50;;;;;;5113252;28;20102;-74
2022/05/09 07:18:55;;;;;;;12.38;9.93;;;22.70;50.20;;;;;;5113571;28;20023;-74
2022/05/09 07:21:21;;;;;;;15.80;10.38;;;22.80;49.60;;;;;;5107493;28;20385;-74
2022/05/09 07:23:47;;;;;;;14.10;9.63;;;22.90;49.10;;;;;;5074891;28;20024;-74
2022/05/09 07:26:13;;;;;;;18.63;9.75;;;23.00;49.20;;;;;;5093061;28;20031;-74
2022/05/09 07:28:40;;;;;;;15.15;9.32;;;23.10;48.40;;;;;;5075548;28;20024;-74
2022/05/09 07:31:06;;;;;;;15.13;8.68;;;23.10;48.40;;;;;;5113217;28;20074;-74
2022/05/09 07:33:32;;;;;;;12.88;9.10;;;23.20;48.40;;;;;;5113347;28;20500;-73
2022/05/09 07:35:58;;;;;;;17.40;9.02;;;23.30;47.90;;;;;;5113351;28;20034;-74
2022/05/09 07:38:24;;;;;;;15.68;10.30;;;23.40;48.10;;;;;;5111137;28;20012;-74
2022/05/09 07:40:51;;;;;;;13.32;9.10;;;23.40;47.20;;;;;;5076009;28;20024;-74
2022/05/09 07:43:20;;;;;;;10.18;8.40;;;23.50;46.70;;;;;;5094901;28;20023;-74
2022/05/09 07:45:50;;;;;;;11.05;8.00;;;23.50;46.70;;;;;;5103868;28;20474;-74
2022/05/09 07:48:16;;;;;;;11.30;7.05;;;23.60;46.60;;;;;;5101931;28;20036;-72
2022/05/09 07:50:42;;;;;;;9.75;7.93;;;23.60;46.60;;;;;;5112419;28;20024;-73
2022/05/09 07:53:09;;;;;;;9.13;7.03;;;23.70;46.30;;;;;;5109747;28;20110;-72
2022/05/09 07:55:35;;;;;;;12.23;6.63;;;23.70;46.20;;;;;;5093475;28;20016;-73
2022/05/09 07:58:01;;;;;;;10.73;6.82;;;23.70;45.00;;;;;;5112620;28;20027;-73
2022/05/09 08:00:27;;;;;;;9.50;6.93;;;23.70;45.10;;;;;;5112521;28;20504;-73
2022/05/09 08:02:53;;;;;;;9.00;6.07;;;23.70;44.80;;;;;;5112766;28;20104;-72
2022/05/09 08:05:19;;;;;;;13.50;6.30;;;23.70;44.80;;;;;;5080691;28;20494;-72
2022/05/09 08:07:45;;;;;;;9.77;5.47;;;23.70;43.50;;;;;;5104031;28;20389;-72
2022/05/09 08:10:12;;;;;;;8.18;6.22;;;23.60;44.20;;;;;;5112813;28;20039;-72
2022/05/09 08:12:38;;;;;;;10.43;6.28;;;23.60;43.90;;;;;;5094574;28;20020;-72
2022/05/09 08:15:06;;;;;;;9.38;6.28;;;23.50;44.50;;;;;;5110342;28;20066;-72
2022/05/09 08:17:32;;;;;;;10.63;6.78;;;23.40;43.50;;;;;;5112871;28;20024;-72
2022/05/09 08:19:59;;;;;;;8.77;6.35;;;23.40;43.60;;;;;;5106491;28;20484;-73
2022/05/09 08:22:28;;;;;;;9.05;6.15;;;23.30;44.20;;;;;;5109753;28;20027;-72
2022/05/09 08:24:58;;;;;;;14.73;7.47;;;23.20;44.30;;;;;;5112350;28;20011;-73
2022/05/09 08:27:24;;;;;;;15.40;7.38;;;23.20;44.60;;;;;;5112701;28;20035;-74
2022/05/09 08:29:54;;;;;;;12.85;7.90;;;23.10;45.20;;;;;;5112381;28;20004;-74
2022/05/09 08:32:20;;;;;;;22.90;8.45;;;23.10;45.40;;;;;;5094101;28;20069;-73
2022/05/09 08:34:46;;;;;;;18.90;7.78;;;23.00;45.70;;;;;;5110781;28;20525;-73
2022/05/09 08:37:11;;;;;;;14.43;7.97;;;23.00;45.80;;;;;;5094345;28;20110;-73
2022/05/09 08:39:37;;;;;;;16.38;7.50;;;22.90;46.00;;;;;;5112258;28;20036;-74
2022/05/09 08:42:07;;;;;;;17.85;7.82;;;22.90;46.10;;;;;;5093784;28;20027;-73
2022/05/09 08:44:51;;;;;;;13.63;7.93;;;22.80;46.00;;;;;;5094364;28;20028;-74
2022/05/09 08:47:36;;;;;;;17.52;8.35;;;22.80;46.30;;;;;;5094304;28;20024;-73
2022/05/09 08:50:13;;;;;;;;;;;22.80;46.50;;;;;;5112887;28;20020;-73
2022/05/09 08:52:49;;;;;;;17.33;7.97;;;22.80;46.90;;;;;;5112199;28;20383;-73
2022/05/09 08:55:32;;;;;;;13.27;8.38;;;22.70;46.50;;;;;;5113722;28;20027;-73
2022/05/09 08:58:19;;;;;;;11.77;8.17;;;22.70;46.70;;;;;;5105988;28;20426;-73
2022/05/09 09:00:49;;;;;;;12.02;7.93;;;22.60;46.80;;;;;;5112123;28;20047;-73
2022/05/09 09:03:38;;;;;;;15.52;8.98;;;22.70;47.20;;;;;;5093018;28;20039;-73
2022/05/09 09:06:15;;;;;;;16.77;10.23;;;22.70;47.30;;;;;;5112263;28;20024;-73
2022/05/09 09:08:52;;;;;;;18.20;9.98;;;22.70;47.20;;;;;;5112254;28;20016;-73
2022/05/09 09:11:39;;;;;;;14.10;9.02;;;22.80;47.20;;;;;;5112102;28;20028;-73
2022/05/09 09:14:14;;;;;;;21.15;10.35;;;22.90;47.30;;;;;;5094061;28;20032;-73
2022/05/09 09:16:54;;;;;;;15.00;9.95;;;22.90;47.00;;;;;;5112198;28;20035;-73
2022/05/09 09:19:39;;;;;;;13.55;8.80;;;23.00;46.90;;;;;;5115592;28;20106;-73
2022/05/09 09:22:42;;;;;;;12.80;8.43;;;23.10;46.80;;;;;;5115811;28;20027;-73
2022/05/09 09:25:15;;;;;;;16.95;8.93;;;23.10;47.10;;;;;;5115439;28;20110;-73
2022/05/09 09:27:53;;;;;;;19.42;10.50;;;23.30;46.90;;;;;;5102790;28;20022;-74
2022/05/09 09:30:21;;;;;;;12.18;8.75;;;23.40;46.60;;;;;;5115727;28;20047;-73
2022/05/09 09:33:05;;;;;;;18.40;9.75;;;23.50;46.30;;;;;;5115685;28;20063;-73
2022/05/09 09:35:34;;;;;;;;;;;23.60;45.80;;;;;;5113495;28;20019;-73
2022/05/09 09:38:06;;;;;;;11.50;8.38;;;23.70;46.80;;;;;;5108407;28;19912;-73
2022/05/09 09:40:33;;;;;;;15.85;7.88;;;23.80;45.20;;;;;;5082157;28;20027;-73
2022/05/09 09:42:59;;;;;;;11.23;6.82;;;24.00;44.70;;;;;;5097049;28;20016;-73
2022/05/09 09:45:34;;;;;;;14.65;7.47;;;24.10;44.90;;;;;;5114376;27;20023;-73
2022/05/09 09:48:17;;;;;;;9.25;7.30;;;24.30;44.80;;;;;;5100783;28;20020;-73
2022/05/09 09:51:10;;;;;;;9.25;6.63;;;24.40;44.30;;;;;;5113805;27;20015;-73
2022/05/09 09:53:52;;;;;;;9.52;7.15;;;24.60;44.50;;;;;;5106628;27;20023;-73
2022/05/09 09:56:20;;;;;;;8.23;5.82;;;24.70;43.90;;;;;;5112763;27;20111;-74
2022/05/09 09:58:51;;;;;;;9.15;6.43;;;24.80;43.30;;;;;;5105522;28;20036;-73
2022/05/09 10:01:30;;;;;;;7.43;6.57;;;24.90;43.40;;;;;;5102624;28;20059;-73
2022/05/09 10:04:26;;;;;;;10.13;7.30;;;25.10;43.00;;;;;;5107716;28;20077;-73
2022/05/09 10:07:05;;;;;;;10.52;5.80;;;25.20;43.30;;;;;;5114317;28;20106;-73
2022/05/09 10:10:00;;;;;;;10.43;7.90;;;25.20;42.50;;;;;;5108383;28;20051;-72
2022/05/09 10:12:29;;;;;;;9.35;6.10;;;25.30;43.00;;;;;;5099281;28;20477;-73
2022/05/09 10:14:55;;;;;;;8.95;7.03;;;25.40;42.60;;;;;;5098495;28;20035;-73
2022/05/09 10:17:29;;;;;;;9.82;7.53;;;25.40;42.40;;;;;;5105236;28;20103;-73
2022/05/09 10:19:58;;;;;;;12.82;8.02;;;25.50;42.90;;;;;;5082669;27;20085;-72
2022/05/09 10:25:22;;;;;;;8.50;6.45;;;25.60;42.40;;;;;;5095599;28;20128;-73
2022/05/09 10:28:14;;;;;;;9.52;6.47;;;25.60;42.60;;;;;;5100785;28;20023;-73
2022/05/09 10:30:47;;;;;;;14.80;7.90;;;25.70;42.60;;;;;;5094115;28;20027;-73
2022/05/09 10:36:37;;;;;;;15.93;8.20;;;25.80;42.30;;;;;;5099348;28;20050;-73
2022/05/09 10:39:13;;;;;;;9.05;5.57;;;25.90;41.50;;;;;;5108978;27;20020;-73
2022/05/09 10:41:46;;;;;;;7.78;5.55;;;25.90;40.90;;;;;;5109715;28;20500;-73
2022/05/09 10:44:28;;;;;;;9.07;7.05;;;26.00;41.30;;;;;;5114167;28;20046;-73
2022/05/09 10:47:01;;;;;;;12.80;6.80;;;26.10;41.10;;;;;;5101631;28;20034;-73
2022/05/09 10:49:38;;;;;;;10.23;7.07;;;26.10;40.70;;;;;;5079068;28;20127;-73
2022/05/09 10:52:27;;;;;;;8.25;6.30;;;26.20;40.10;;;;;;5109161;28;20070;-73
2022/05/09 10:55:24;;;;;;;10.85;6.20;;;26.20;40.30;;;;;;5103149;28;20040;-73
2022/05/09 10:58:11;;;;;;;7.28;5.30;;;26.30;40.50;;;;;;5090312;28;20036;-73
2022/05/09 11:00:47;;;;;;;6.30;4.93;;;26.30;40.50;;;;;;5096846;28;20020;-73
2022/05/09 11:03:34;;;;;;;9.13;5.78;;;26.40;39.90;;;;;;5113819;27;20094;-73
2022/05/09 11:06:22;;;;;;;6.35;4.63;;;26.50;39.40;;;;;;5112160;27;20439;-73
2022/05/09 11:09:21;;;;;;;7.32;4.47;;;26.50;37.50;;;;;;5105817;28;20034;-73
2022/05/09 11:12:14;;;;;;;4.43;3.47;;;26.50;35.80;;;;;;5093745;28;20111;-73
2022/05/09 11:14:50;;;;;;;7.47;3.53;;;26.40;34.60;;;;;;5092309;28;20051;-73
2022/05/09 11:17:24;;;;;;;6.55;3.90;;;26.40;34.60;;;;;;5110017;28;20023;-73
2022/05/09 11:20:07;;;;;;;;;;;26.40;35.00;;;;;;5101187;28;20016;-73
2022/05/09 11:23:08;;;;;;;6.28;4.43;;;26.50;37.10;;;;;;5093006;28;19908;-73
2022/05/09 11:26:03;;;;;;;7.88;4.20;;;26.40;35.10;;;;;;5061322;28;20036;-73
2022/05/09 11:28:55;;;;;;;5.80;4.28;;;26.50;36.00;;;;;;5092380;28;20479;-73
2022/05/09 11:31:32;;;;;;;8.05;5.15;;;26.60;35.40;;;;;;5113198;28;20023;-73
2022/05/09 11:34:41;;;;;;;11.00;4.85;;;26.60;35.30;;;;;;5113256;28;20024;-73
2022/05/09 11:37:23;;;;;;;6.25;4.18;;;26.60;35.80;;;;;;5094056;28;20081;-74
2022/05/09 11:40:21;;;;;;;6.65;4.72;;;26.60;36.60;;;;;;5102931;28;20443;-73
2022/05/09 11:46:01;;;;;;;6.55;4.72;;;26.80;36.50;;;;;;5110070;28;20490;-74
2022/05/09 11:48:37;;;;;;;6.05;4.95;;;26.90;36.20;;;;;;5104842;27;20500;-73
2022/05/09 11:51:09;;;;;;;6.78;4.82;;;26.90;34.70;;;;;;5086144;28;20028;-73
2022/05/09 11:53:39;;;;;;;5.90;4.50;;;26.90;33.70;;;;;;5097881;28;20445;-74
2022/05/09 11:56:06;;;;;;;7.35;3.75;;;26.90;33.70;;;;;;5111511;28;20526;-73
2022/05/09 11:58:37;;;;;;;7.50;4.03;;;26.90;33.40;;;;;;5112912;28;20054;-73
2022/05/09 12:01:03;;;;;;;4.70;3.83;;;26.90;32.60;;;;;;5113048;28;20492;-74
2022/05/09 12:03:41;;;;;;;18.00;3.88;;;26.90;33.40;;;;;;5087939;28;20028;-73
2022/05/09 12:06:28;;;;;;;5.30;2.47;;;26.90;33.30;;;;;;5074402;28;20031;-74
2022/05/09 12:08:56;;;;;;;14.00;5.53;;;26.90;32.60;;;;;;5090069;28;20363;-74
2022/05/09 12:11:41;;;;;;;5.90;3.47;;;27.00;32.00;;;;;;5092425;28;20028;-74
2022/05/09 12:14:07;;;;;;;7.43;3.80;;;27.00;31.80;;;;;;5098627;28;20024;-74
2022/05/09 12:16:36;;;;;;;5.15;3.53;;;27.10;31.80;;;;;;5110803;28;20358;-74
2022/05/09 12:19:11;;;;;;;5.43;3.38;;;27.10;31.70;;;;;;5092280;28;20099;-73
2022/05/09 12:21:37;;;;;;;6.70;4.82;;;27.20;31.20;;;;;;5092409;28;20024;-73
2022/05/09 12:24:15;;;;;;;6.15;4.07;;;27.20;31.60;;;;;;5097459;28;20032;-73
2022/05/09 12:26:46;;;;;;;6.93;5.15;;;27.20;32.70;;;;;;5111303;28;20023;-74
2022/05/09 12:29:12;;;;;;;5.95;4.25;;;27.30;32.00;;;;;;5102708;28;20062;-72
2022/05/09 12:31:42;;;;;;;10.43;5.85;;;27.30;31.80;;;;;;5112642;28;20023;-75
2022/05/09 12:34:11;;;;;;;10.07;4.97;;;27.30;32.50;;;;;;5104888;28;20362;-73
2022/05/09 12:36:37;;;;;;;9.35;4.53;;;27.40;32.50;;;;;;5107161;28;20087;-73
2022/05/09 12:39:25;;;;;;;7.22;5.22;;;27.40;31.80;;;;;;5110972;28;20507;-74
2022/05/09 12:41:56;;;;;;;9.98;6.13;;;27.50;32.10;;;;;;5092389;28;20031;-73
2022/05/09 12:44:35;;;;;;;8.50;3.75;;;27.50;31.20;;;;;;5092469;28;20358;-72
2022/05/09 12:47:07;;;;;;;6.53;3.28;;;27.60;30.90;;;;;;5092354;28;20370;-72
2022/05/09 12:49:40;;;;;;;10.48;4.55;;;27.60;31.30;;;;;;5092329;28;20055;-72
2022/05/09 12:52:08;;;;;;;8.77;5.50;;;27.60;31.00;;;;;;5093702;28;20024;-73
2022/05/09 12:54:35;;;;;;;5.57;4.53;;;27.60;31.10;;;;;;5096186;28;20107;-72
2022/05/09 12:57:04;;;;;;;7.80;3.80;;;27.70;31.70;;;;;;5096365;28;20020;-72
2022/05/09 12:59:48;;;;;;;8.13;6.15;;;27.70;31.10;;;;;;5095930;28;20044;-72
2022/05/09 13:02:21;;;;;;;10.52;7.05;;;27.70;32.30;;;;;;5095898;28;20055;-72
2022/05/09 13:04:49;;;;;;;7.85;5.68;;;27.80;32.20;;;;;;5095888;28;20073;-72
2022/05/09 13:07:15;;;;;;;8.73;4.25;;;27.90;31.40;;;;;;5099973;28;20028;-72
2022/05/09 13:09:49;;;;;;;6.00;3.83;;;28.00;31.30;;;;;;5116340;28;20024;-72
2022/05/09 13:12:34;;;;;;;5.38;2.90;;;28.00;30.80;;;;;;5107141;28;20067;-72
2022/05/09 13:15:13;;;;;;;4.38;2.72;;;28.10;29.20;;;;;;5116125;28;20020;-73
2022/05/09 13:17:55;;;;;;;16.08;3.20;;;28.10;28.20;;;;;;5116225;28;20016;-72